sensor_id;sensor_type;location;lat;lon;timestamp;P1;durP1;ratioP1;P2;durP2;ratioP2
67274;SDS011;55463;52.324;5.122;2024-02-14T00:02:20;12.85;;;7.82;;
67274;SDS011;55463;52.324;5.122;2024-02-14T00:04:46;11.40;;;7.63;;
67274;SDS011;55463;52.324;5.122;2024-02-14T00:07:11;11.93;;;7.93;;
67274;SDS011;55463;52.324;5.122;2024-02-14T00:09:36;12.45;;;8.20;;
67274;SDS011;55463;52.324;5.122;2024-02-14T00:12:02;14.38;;;8.18;;
67274;SDS011;55463;52.324;5.122;2024-02-14T00:14:27;13.90;;;7.32;;
67274;SDS011;55463;52.324;5.122;2024-02-14T00:16:53;13.60;;;8.27;;
67274;SDS011;55463;52.324;5.122;2024-02-14T00:19:18;10.38;;;7.65;;
67274;SDS011;55463;52.324;5.122;2024-02-14T00:21:44;10.82;;;8.32;;
67274;SDS011;55463;52.324;5.122;2024-02-14T00:24:09;17.25;;;8.40;;
67274;SDS011;55463;52.324;5.122;2024-02-14T00:26:34;13.77;;;8.52;;
67274;SDS011;55463;52.324;5.122;2024-02-14T00:29:00;11.35;;;7.97;;
67274;SDS011;55463;52.324;5.122;2024-02-14T00:31:26;12.35;;;8.70;;
67274;SDS011;55463;52.324;5.122;2024-02-14T00:33:51;11.10;;;8.73;;
67274;SDS011;55463;52.324;5.122;2024-02-14T00:36:17;12.73;;;8.63;;
67274;SDS011;55463;52.324;5.122;2024-02-14T00:38:42;14.25;;;9.45;;
67274;SDS011;55463;52.324;5.122;2024-02-14T00:41:10;12.30;;;9.35;;
67274;SDS011;55463;52.324;5.122;2024-02-14T00:43:36;12.05;;;8.93;;
67274;SDS011;55463;52.324;5.122;2024-02-14T00:46:01;11.93;;;8.98;;
67274;SDS011;55463;52.324;5.122;2024-02-14T00:48:26;14.45;;;8.60;;
67274;SDS011;55463;52.324;5.122;2024-02-14T00:50:52;16.40;;;9.23;;
67274;SDS011;55463;52.324;5.122;2024-02-14T00:53:17;14.00;;;9.65;;
67274;SDS011;55463;52.324;5.122;2024-02-14T00:55:43;14.07;;;9.40;;
67274;SDS011;55463;52.324;5.122;2024-02-14T00:58:09;18.80;;;9.50;;
67274;SDS011;55463;52.324;5.122;2024-02-14T01:00:35;12.73;;;8.73;;
67274;SDS011;55463;52.324;5.122;2024-02-14T01:03:00;14.32;;;9.57;;
67274;SDS011;55463;52.324;5.122;2024-02-14T01:05:25;15.85;;;9.75;;
67274;SDS011;55463;52.324;5.122;2024-02-14T01:07:51;15.23;;;10.15;;
67274;SDS011;55463;52.324;5.122;2024-02-14T01:10:19;15.45;;;9.55;;
67274;SDS011;55463;52.324;5.122;2024-02-14T01:12:44;12.73;;;8.80;;
67274;SDS011;55463;52.324;5.122;2024-02-14T01:15:09;13.65;;;9.35;;
67274;SDS011;55463;52.324;5.122;2024-02-14T01:17:35;16.13;;;9.52;;
67274;SDS011;55463;52.324;5.122;2024-02-14T01:20:03;14.75;;;9.80;;
67274;SDS011;55463;52.324;5.122;2024-02-14T01:22:28;17.30;;;10.48;;
67274;SDS011;55463;52.324;5.122;2024-02-14T01:24:54;18.65;;;10.05;;
67274;SDS011;55463;52.324;5.122;2024-02-14T01:27:19;17.20;;;9.63;;
67274;SDS011;55463;52.324;5.122;2024-02-14T01:29:47;17.50;;;11.23;;
67274;SDS011;55463;52.324;5.122;2024-02-14T01:32:13;16.20;;;9.98;;
67274;SDS011;55463;52.324;5.122;2024-02-14T01:34:39;15.02;;;9.82;;
67274;SDS011;55463;52.324;5.122;2024-02-14T01:37:04;18.42;;;10.45;;
67274;SDS011;55463;52.324;5.122;2024-02-14T01:39:29;11.75;;;9.07;;
67274;SDS011;55463;52.324;5.122;2024-02-14T01:41:56;13.93;;;10.25;;
67274;SDS011;55463;52.324;5.122;2024-02-14T01:44:21;18.77;;;10.55;;
67274;SDS011;55463;52.324;5.122;2024-02-14T01:46:47;14.82;;;10.40;;
67274;SDS011;55463;52.324;5.122;2024-02-14T01:49:12;17.75;;;10.98;;
67274;SDS011;55463;52.324;5.122;2024-02-14T01:51:41;18.17;;;11.63;;
67274;SDS011;55463;52.324;5.122;2024-02-14T01:54:09;19.27;;;11.85;;
67274;SDS011;55463;52.324;5.122;2024-02-14T01:56:36;18.45;;;11.35;;
67274;SDS011;55463;52.324;5.122;2024-02-14T01:59:02;19.35;;;12.45;;
67274;SDS011;55463;52.324;5.122;2024-02-14T02:01:27;20.83;;;12.40;;
67274;SDS011;55463;52.324;5.122;2024-02-14T02:03:53;17.10;;;12.65;;
67274;SDS011;55463;52.324;5.122;2024-02-14T02:06:19;19.05;;;12.60;;
67274;SDS011;55463;52.324;5.122;2024-02-14T02:08:44;18.40;;;12.63;;
67274;SDS011;55463;52.324;5.122;2024-02-14T02:11:10;20.73;;;12.30;;
67274;SDS011;55463;52.324;5.122;2024-02-14T02:13:35;19.20;;;12.23;;
67274;SDS011;55463;52.324;5.122;2024-02-14T02:16:01;23.02;;;11.98;;
67274;SDS011;55463;52.324;5.122;2024-02-14T02:18:30;15.23;;;11.32;;
67274;SDS011;55463;52.324;5.122;2024-02-14T02:20:56;14.00;;;10.68;;
67274;SDS011;55463;52.324;5.122;2024-02-14T02:23:22;18.80;;;11.35;;
67274;SDS011;55463;52.324;5.122;2024-02-14T02:25:48;18.85;;;11.27;;
67274;SDS011;55463;52.324;5.122;2024-02-14T02:28:13;17.83;;;12.48;;
67274;SDS011;55463;52.324;5.122;2024-02-14T02:30:39;19.02;;;11.68;;
67274;SDS011;55463;52.324;5.122;2024-02-14T02:33:05;19.08;;;12.18;;
67274;SDS011;55463;52.324;5.122;2024-02-14T02:35:32;18.45;;;11.05;;
67274;SDS011;55463;52.324;5.122;2024-02-14T02:37:58;19.55;;;11.88;;
67274;SDS011;55463;52.324;5.122;2024-02-14T02:40:24;21.65;;;11.75;;
67274;SDS011;55463;52.324;5.122;2024-02-14T02:42:50;17.15;;;12.05;;
67274;SDS011;55463;52.324;5.122;2024-02-14T02:45:16;14.15;;;10.80;;
67274;SDS011;55463;52.324;5.122;2024-02-14T02:47:42;19.92;;;11.30;;
67274;SDS011;55463;52.324;5.122;2024-02-14T02:50:07;19.48;;;12.10;;
67274;SDS011;55463;52.324;5.122;2024-02-14T02:52:33;15.00;;;10.25;;
67274;SDS011;55463;52.324;5.122;2024-02-14T02:54:59;13.43;;;10.15;;
67274;SDS011;55463;52.324;5.122;2024-02-14T02:57:26;15.15;;;10.05;;
67274;SDS011;55463;52.324;5.122;2024-02-14T02:59:52;13.23;;;10.05;;
67274;SDS011;55463;52.324;5.122;2024-02-14T03:02:19;12.27;;;9.35;;
67274;SDS011;55463;52.324;5.122;2024-02-14T03:04:45;15.80;;;10.57;;
67274;SDS011;55463;52.324;5.122;2024-02-14T03:07:10;12.05;;;9.00;;
67274;SDS011;55463;52.324;5.122;2024-02-14T03:09:36;13.43;;;9.15;;
67274;SDS011;55463;52.324;5.122;2024-02-14T03:12:02;13.07;;;8.70;;
67274;SDS011;55463;52.324;5.122;2024-02-14T03:14:31;10.85;;;7.45;;
67274;SDS011;55463;52.324;5.122;2024-02-14T03:17:04;9.45;;;7.15;;
67274;SDS011;55463;52.324;5.122;2024-02-14T03:19:30;12.40;;;7.80;;
67274;SDS011;55463;52.324;5.122;2024-02-14T03:21:56;11.20;;;7.90;;
67274;SDS011;55463;52.324;5.122;2024-02-14T03:24:22;12.38;;;8.60;;
67274;SDS011;55463;52.324;5.122;2024-02-14T03:26:50;9.77;;;7.70;;
67274;SDS011;55463;52.324;5.122;2024-02-14T03:29:16;10.88;;;7.72;;
67274;SDS011;55463;52.324;5.122;2024-02-14T03:31:41;10.60;;;8.55;;
67274;SDS011;55463;52.324;5.122;2024-02-14T03:34:08;10.98;;;8.55;;
67274;SDS011;55463;52.324;5.122;2024-02-14T03:36:36;20.27;;;14.00;;
67274;SDS011;55463;52.324;5.122;2024-02-14T03:39:02;24.55;;;15.07;;
67274;SDS011;55463;52.324;5.122;2024-02-14T03:41:29;28.48;;;14.88;;
67274;SDS011;55463;52.324;5.122;2024-02-14T03:43:55;25.20;;;15.85;;
67274;SDS011;55463;52.324;5.122;2024-02-14T03:46:23;24.17;;;16.85;;
67274;SDS011;55463;52.324;5.122;2024-02-14T03:48:49;28.10;;;17.77;;
67274;SDS011;55463;52.324;5.122;2024-02-14T03:51:14;27.83;;;15.98;;
67274;SDS011;55463;52.324;5.122;2024-02-14T03:53:41;28.65;;;16.05;;
67274;SDS011;55463;52.324;5.122;2024-02-14T03:56:06;29.48;;;17.08;;
67274;SDS011;55463;52.324;5.122;2024-02-14T03:58:35;32.55;;;17.20;;
67274;SDS011;55463;52.324;5.122;2024-02-14T04:01:02;32.38;;;17.33;;
67274;SDS011;55463;52.324;5.122;2024-02-14T04:03:28;31.88;;;15.88;;
67274;SDS011;55463;52.324;5.122;2024-02-14T04:05:54;30.40;;;14.95;;
67274;SDS011;55463;52.324;5.122;2024-02-14T04:08:20;41.95;;;14.98;;
67274;SDS011;55463;52.324;5.122;2024-02-14T04:10:45;36.45;;;14.90;;
67274;SDS011;55463;52.324;5.122;2024-02-14T04:13:11;36.33;;;12.05;;
67274;SDS011;55463;52.324;5.122;2024-02-14T04:15:36;39.17;;;12.40;;
67274;SDS011;55463;52.324;5.122;2024-02-14T04:18:02;32.40;;;11.55;;
67274;SDS011;55463;52.324;5.122;2024-02-14T04:20:28;35.70;;;11.18;;
67274;SDS011;55463;52.324;5.122;2024-02-14T04:22:54;27.20;;;10.57;;
67274;SDS011;55463;52.324;5.122;2024-02-14T04:25:20;31.55;;;10.35;;
67274;SDS011;55463;52.324;5.122;2024-02-14T04:27:46;38.10;;;10.25;;
67274;SDS011;55463;52.324;5.122;2024-02-14T04:30:11;33.28;;;8.95;;
67274;SDS011;55463;52.324;5.122;2024-02-14T04:32:37;37.08;;;9.43;;
67274;SDS011;55463;52.324;5.122;2024-02-14T04:35:02;37.05;;;8.63;;
67274;SDS011;55463;52.324;5.122;2024-02-14T04:37:28;33.85;;;9.05;;
67274;SDS011;55463;52.324;5.122;2024-02-14T04:39:54;34.63;;;8.73;;
67274;SDS011;55463;52.324;5.122;2024-02-14T04:42:20;42.20;;;8.52;;
67274;SDS011;55463;52.324;5.122;2024-02-14T04:44:45;27.77;;;7.65;;
67274;SDS011;55463;52.324;5.122;2024-02-14T04:47:11;38.72;;;7.97;;
67274;SDS011;55463;52.324;5.122;2024-02-14T04:49:36;38.10;;;8.10;;
67274;SDS011;55463;52.324;5.122;2024-02-14T04:52:02;32.50;;;7.97;;
67274;SDS011;55463;52.324;5.122;2024-02-14T04:54:27;40.17;;;8.38;;
67274;SDS011;55463;52.324;5.122;2024-02-14T04:56:53;36.38;;;8.93;;
67274;SDS011;55463;52.324;5.122;2024-02-14T04:59:19;32.15;;;8.05;;
67274;SDS011;55463;52.324;5.122;2024-02-14T05:01:44;28.38;;;7.68;;
67274;SDS011;55463;52.324;5.122;2024-02-14T05:04:11;37.33;;;8.10;;
67274;SDS011;55463;52.324;5.122;2024-02-14T05:06:37;38.78;;;8.43;;
67274;SDS011;55463;52.324;5.122;2024-02-14T05:09:03;37.63;;;8.02;;
67274;SDS011;55463;52.324;5.122;2024-02-14T05:11:29;36.58;;;7.90;;
67274;SDS011;55463;52.324;5.122;2024-02-14T05:13:54;31.27;;;8.15;;
67274;SDS011;55463;52.324;5.122;2024-02-14T05:16:20;43.58;;;9.02;;
67274;SDS011;55463;52.324;5.122;2024-02-14T05:18:45;30.35;;;8.63;;
67274;SDS011;55463;52.324;5.122;2024-02-14T05:21:11;29.88;;;8.80;;
67274;SDS011;55463;52.324;5.122;2024-02-14T05:23:37;43.25;;;8.38;;
67274;SDS011;55463;52.324;5.122;2024-02-14T05:26:02;34.17;;;8.45;;
67274;SDS011;55463;52.324;5.122;2024-02-14T05:28:28;28.50;;;8.35;;
67274;SDS011;55463;52.324;5.122;2024-02-14T05:30:54;38.85;;;9.60;;
67274;SDS011;55463;52.324;5.122;2024-02-14T05:33:20;44.25;;;8.85;;
67274;SDS011;55463;52.324;5.122;2024-02-14T05:35:47;35.05;;;8.88;;
67274;SDS011;55463;52.324;5.122;2024-02-14T05:38:13;41.53;;;7.80;;
67274;SDS011;55463;52.324;5.122;2024-02-14T05:40:39;30.67;;;8.63;;
67274;SDS011;55463;52.324;5.122;2024-02-14T05:43:05;41.72;;;9.45;;
67274;SDS011;55463;52.324;5.122;2024-02-14T05:45:32;31.38;;;8.80;;
67274;SDS011;55463;52.324;5.122;2024-02-14T05:47:57;27.90;;;9.43;;
67274;SDS011;55463;52.324;5.122;2024-02-14T05:50:23;33.40;;;9.48;;
67274;SDS011;55463;52.324;5.122;2024-02-14T05:52:48;34.97;;;9.27;;
67274;SDS011;55463;52.324;5.122;2024-02-14T05:55:14;39.60;;;9.05;;
67274;SDS011;55463;52.324;5.122;2024-02-14T05:57:40;34.42;;;8.88;;
67274;SDS011;55463;52.324;5.122;2024-02-14T06:00:05;39.53;;;8.50;;
67274;SDS011;55463;52.324;5.122;2024-02-14T06:02:32;32.55;;;9.57;;
67274;SDS011;55463;52.324;5.122;2024-02-14T06:04:57;36.00;;;9.35;;
67274;SDS011;55463;52.324;5.122;2024-02-14T06:07:23;30.15;;;8.52;;
67274;SDS011;55463;52.324;5.122;2024-02-14T06:09:48;46.15;;;9.57;;
67274;SDS011;55463;52.324;5.122;2024-02-14T06:12:13;29.05;;;8.27;;
67274;SDS011;55463;52.324;5.122;2024-02-14T06:14:39;35.92;;;9.30;;
67274;SDS011;55463;52.324;5.122;2024-02-14T06:17:04;37.22;;;8.50;;
67274;SDS011;55463;52.324;5.122;2024-02-14T06:19:29;31.90;;;9.25;;
67274;SDS011;55463;52.324;5.122;2024-02-14T06:21:55;30.38;;;8.48;;
67274;SDS011;55463;52.324;5.122;2024-02-14T06:24:21;22.60;;;7.63;;
67274;SDS011;55463;52.324;5.122;2024-02-14T06:26:46;31.13;;;8.88;;
67274;SDS011;55463;52.324;5.122;2024-02-14T06:29:11;21.60;;;7.55;;
67274;SDS011;55463;52.324;5.122;2024-02-14T06:31:37;24.25;;;8.07;;
67274;SDS011;55463;52.324;5.122;2024-02-14T06:34:02;25.90;;;7.18;;
67274;SDS011;55463;52.324;5.122;2024-02-14T06:36:28;33.60;;;8.00;;
67274;SDS011;55463;52.324;5.122;2024-02-14T06:38:53;24.73;;;7.95;;
67274;SDS011;55463;52.324;5.122;2024-02-14T06:41:19;22.92;;;8.70;;
67274;SDS011;55463;52.324;5.122;2024-02-14T06:43:45;29.98;;;9.52;;
67274;SDS011;55463;52.324;5.122;2024-02-14T06:46:11;24.85;;;9.30;;
67274;SDS011;55463;52.324;5.122;2024-02-14T06:48:36;43.35;;;9.48;;
67274;SDS011;55463;52.324;5.122;2024-02-14T06:51:01;31.40;;;8.85;;
67274;SDS011;55463;52.324;5.122;2024-02-14T06:53:27;28.23;;;8.77;;
67274;SDS011;55463;52.324;5.122;2024-02-14T06:55:52;23.85;;;8.15;;
67274;SDS011;55463;52.324;5.122;2024-02-14T06:58:18;22.42;;;7.38;;
67274;SDS011;55463;52.324;5.122;2024-02-14T07:00:43;28.40;;;7.20;;
67274;SDS011;55463;52.324;5.122;2024-02-14T07:03:09;27.25;;;7.40;;
67274;SDS011;55463;52.324;5.122;2024-02-14T07:05:34;29.50;;;8.00;;
67274;SDS011;55463;52.324;5.122;2024-02-14T07:08:00;20.83;;;6.78;;
67274;SDS011;55463;52.324;5.122;2024-02-14T07:10:26;22.20;;;7.50;;
67274;SDS011;55463;52.324;5.122;2024-02-14T07:12:52;21.80;;;8.45;;
67274;SDS011;55463;52.324;5.122;2024-02-14T07:15:17;28.55;;;8.25;;
67274;SDS011;55463;52.324;5.122;2024-02-14T07:17:42;32.78;;;9.63;;
67274;SDS011;55463;52.324;5.122;2024-02-14T07:20:08;27.42;;;9.13;;
67274;SDS011;55463;52.324;5.122;2024-02-14T07:22:34;32.53;;;9.55;;
67274;SDS011;55463;52.324;5.122;2024-02-14T07:25:00;31.13;;;9.13;;
67274;SDS011;55463;52.324;5.122;2024-02-14T07:27:26;26.30;;;9.68;;
67274;SDS011;55463;52.324;5.122;2024-02-14T07:29:52;25.55;;;9.25;;
67274;SDS011;55463;52.324;5.122;2024-02-14T07:32:17;22.95;;;9.52;;
67274;SDS011;55463;52.324;5.122;2024-02-14T07:34:43;34.05;;;9.82;;
67274;SDS011;55463;52.324;5.122;2024-02-14T07:37:08;37.70;;;11.13;;
67274;SDS011;55463;52.324;5.122;2024-02-14T07:39:36;32.25;;;9.52;;
67274;SDS011;55463;52.324;5.122;2024-02-14T07:42:05;24.52;;;9.93;;
67274;SDS011;55463;52.324;5.122;2024-02-14T07:44:30;29.00;;;10.60;;
67274;SDS011;55463;52.324;5.122;2024-02-14T07:46:58;35.22;;;11.20;;
67274;SDS011;55463;52.324;5.122;2024-02-14T07:49:24;30.40;;;10.85;;
67274;SDS011;55463;52.324;5.122;2024-02-14T07:51:49;27.98;;;11.27;;
67274;SDS011;55463;52.324;5.122;2024-02-14T07:54:15;28.35;;;11.20;;
67274;SDS011;55463;52.324;5.122;2024-02-14T07:56:40;31.98;;;11.43;;
67274;SDS011;55463;52.324;5.122;2024-02-14T07:59:05;32.05;;;11.38;;
67274;SDS011;55463;52.324;5.122;2024-02-14T08:01:31;30.27;;;13.60;;
67274;SDS011;55463;52.324;5.122;2024-02-14T08:03:57;34.10;;;16.10;;
67274;SDS011;55463;52.324;5.122;2024-02-14T08:06:23;39.75;;;17.08;;
67274;SDS011;55463;52.324;5.122;2024-02-14T08:08:48;36.97;;;17.63;;
67274;SDS011;55463;52.324;5.122;2024-02-14T08:11:16;37.90;;;16.50;;
67274;SDS011;55463;52.324;5.122;2024-02-14T08:13:42;33.20;;;15.73;;
67274;SDS011;55463;52.324;5.122;2024-02-14T08:16:08;38.67;;;18.40;;
67274;SDS011;55463;52.324;5.122;2024-02-14T08:18:33;35.08;;;16.13;;
67274;SDS011;55463;52.324;5.122;2024-02-14T08:21:00;37.10;;;16.23;;
67274;SDS011;55463;52.324;5.122;2024-02-14T08:23:25;36.30;;;15.95;;
67274;SDS011;55463;52.324;5.122;2024-02-14T08:25:51;33.45;;;16.35;;
67274;SDS011;55463;52.324;5.122;2024-02-14T08:28:18;40.40;;;15.70;;
67274;SDS011;55463;52.324;5.122;2024-02-14T08:30:45;37.72;;;15.70;;
67274;SDS011;55463;52.324;5.122;2024-02-14T08:33:10;34.85;;;15.45;;
67274;SDS011;55463;52.324;5.122;2024-02-14T08:35:36;38.80;;;15.85;;
67274;SDS011;55463;52.324;5.122;2024-02-14T08:38:01;36.47;;;16.63;;
67274;SDS011;55463;52.324;5.122;2024-02-14T08:40:27;33.88;;;16.25;;
67274;SDS011;55463;52.324;5.122;2024-02-14T08:42:52;42.85;;;15.88;;
67274;SDS011;55463;52.324;5.122;2024-02-14T08:45:18;33.15;;;16.02;;
67274;SDS011;55463;52.324;5.122;2024-02-14T08:47:44;38.33;;;15.77;;
67274;SDS011;55463;52.324;5.122;2024-02-14T08:50:09;26.98;;;15.07;;
67274;SDS011;55463;52.324;5.122;2024-02-14T08:52:35;30.98;;;16.20;;
67274;SDS011;55463;52.324;5.122;2024-02-14T08:55:03;34.55;;;15.50;;
67274;SDS011;55463;52.324;5.122;2024-02-14T08:57:39;37.38;;;15.05;;
67274;SDS011;55463;52.324;5.122;2024-02-14T09:00:05;24.15;;;14.70;;
67274;SDS011;55463;52.324;5.122;2024-02-14T09:02:32;25.02;;;14.25;;
67274;SDS011;55463;52.324;5.122;2024-02-14T09:04:59;23.20;;;13.40;;
67274;SDS011;55463;52.324;5.122;2024-02-14T09:07:26;19.25;;;12.93;;
67274;SDS011;55463;52.324;5.122;2024-02-14T09:09:51;25.48;;;12.38;;
67274;SDS011;55463;52.324;5.122;2024-02-14T09:12:17;23.52;;;12.80;;
67274;SDS011;55463;52.324;5.122;2024-02-14T09:14:42;21.77;;;12.25;;
67274;SDS011;55463;52.324;5.122;2024-02-14T09:17:08;19.85;;;11.98;;
67274;SDS011;55463;52.324;5.122;2024-02-14T09:19:34;19.77;;;12.43;;
67274;SDS011;55463;52.324;5.122;2024-02-14T09:22:00;25.80;;;12.35;;
67274;SDS011;55463;52.324;5.122;2024-02-14T09:24:25;23.40;;;13.40;;
67274;SDS011;55463;52.324;5.122;2024-02-14T09:26:51;19.52;;;12.77;;
67274;SDS011;55463;52.324;5.122;2024-02-14T09:29:16;18.60;;;12.27;;
67274;SDS011;55463;52.324;5.122;2024-02-14T09:31:42;17.42;;;11.95;;
67274;SDS011;55463;52.324;5.122;2024-02-14T09:34:07;16.05;;;11.52;;
67274;SDS011;55463;52.324;5.122;2024-02-14T09:36:33;17.80;;;11.05;;
67274;SDS011;55463;52.324;5.122;2024-02-14T09:38:58;20.80;;;11.85;;
67274;SDS011;55463;52.324;5.122;2024-02-14T09:41:25;17.45;;;11.25;;
67274;SDS011;55463;52.324;5.122;2024-02-14T09:44:01;17.73;;;11.20;;
67274;SDS011;55463;52.324;5.122;2024-02-14T09:46:26;15.82;;;10.32;;
67274;SDS011;55463;52.324;5.122;2024-02-14T09:48:53;15.10;;;10.07;;
67274;SDS011;55463;52.324;5.122;2024-02-14T09:51:19;14.52;;;9.93;;
67274;SDS011;55463;52.324;5.122;2024-02-14T09:53:46;12.68;;;8.90;;
67274;SDS011;55463;52.324;5.122;2024-02-14T09:56:12;12.43;;;8.65;;
67274;SDS011;55463;52.324;5.122;2024-02-14T09:58:39;12.77;;;9.30;;
67274;SDS011;55463;52.324;5.122;2024-02-14T10:01:05;15.23;;;9.18;;
67274;SDS011;55463;52.324;5.122;2024-02-14T10:03:31;12.38;;;9.07;;
67274;SDS011;55463;52.324;5.122;2024-02-14T10:05:57;13.32;;;9.32;;
67274;SDS011;55463;52.324;5.122;2024-02-14T10:08:23;15.40;;;10.77;;
67274;SDS011;55463;52.324;5.122;2024-02-14T10:10:49;15.60;;;10.48;;
67274;SDS011;55463;52.324;5.122;2024-02-14T10:13:17;17.00;;;11.20;;
67274;SDS011;55463;52.324;5.122;2024-02-14T10:15:43;19.70;;;12.25;;
67274;SDS011;55463;52.324;5.122;2024-02-14T10:18:08;20.83;;;11.95;;
67274;SDS011;55463;52.324;5.122;2024-02-14T10:20:36;24.27;;;13.38;;
67274;SDS011;55463;52.324;5.122;2024-02-14T10:23:08;18.83;;;12.27;;
67274;SDS011;55463;52.324;5.122;2024-02-14T10:25:35;23.95;;;13.57;;
67274;SDS011;55463;52.324;5.122;2024-02-14T10:28:04;21.67;;;13.40;;
67274;SDS011;55463;52.324;5.122;2024-02-14T10:30:34;21.85;;;13.52;;
67274;SDS011;55463;52.324;5.122;2024-02-14T10:33:02;25.42;;;13.65;;
67274;SDS011;55463;52.324;5.122;2024-02-14T10:35:28;21.58;;;13.60;;
67274;SDS011;55463;52.324;5.122;2024-02-14T10:37:56;33.30;;;15.80;;
67274;SDS011;55463;52.324;5.122;2024-02-14T10:40:27;24.65;;;14.48;;
67274;SDS011;55463;52.324;5.122;2024-02-14T10:42:53;20.25;;;13.25;;
67274;SDS011;55463;52.324;5.122;2024-02-14T10:45:19;18.40;;;12.75;;
67274;SDS011;55463;52.324;5.122;2024-02-14T10:47:45;18.05;;;12.48;;
67274;SDS011;55463;52.324;5.122;2024-02-14T10:50:16;17.50;;;11.25;;
67274;SDS011;55463;52.324;5.122;2024-02-14T10:52:42;19.10;;;10.00;;
67274;SDS011;55463;52.324;5.122;2024-02-14T10:55:11;16.80;;;9.77;;
67274;SDS011;55463;52.324;5.122;2024-02-14T10:57:39;12.95;;;9.40;;
67274;SDS011;55463;52.324;5.122;2024-02-14T11:00:06;15.45;;;9.80;;
67274;SDS011;55463;52.324;5.122;2024-02-14T11:02:35;12.88;;;9.57;;
67274;SDS011;55463;52.324;5.122;2024-02-14T11:05:03;13.77;;;10.27;;
67274;SDS011;55463;52.324;5.122;2024-02-14T11:07:29;18.20;;;10.60;;
67274;SDS011;55463;52.324;5.122;2024-02-14T11:12:32;12.05;;;9.35;;
67274;SDS011;55463;52.324;5.122;2024-02-14T11:15:00;14.30;;;10.07;;
67274;SDS011;55463;52.324;5.122;2024-02-14T11:17:26;11.95;;;8.45;;
67274;SDS011;55463;52.324;5.122;2024-02-14T11:19:52;12.63;;;7.63;;
67274;SDS011;55463;52.324;5.122;2024-02-14T11:22:19;6.90;;;5.75;;
67274;SDS011;55463;52.324;5.122;2024-02-14T11:24:47;10.73;;;6.00;;
67274;SDS011;55463;52.324;5.122;2024-02-14T11:27:17;6.80;;;5.65;;
67274;SDS011;55463;52.324;5.122;2024-02-14T11:29:52;7.45;;;5.15;;
67274;SDS011;55463;52.324;5.122;2024-02-14T11:32:18;7.47;;;4.95;;
67274;SDS011;55463;52.324;5.122;2024-02-14T11:34:52;5.72;;;4.75;;
67274;SDS011;55463;52.324;5.122;2024-02-14T11:37:19;5.30;;;4.15;;
67274;SDS011;55463;52.324;5.122;2024-02-14T11:39:46;8.02;;;4.80;;
67274;SDS011;55463;52.324;5.122;2024-02-14T11:42:11;5.45;;;4.82;;
67274;SDS011;55463;52.324;5.122;2024-02-14T11:44:39;8.13;;;4.78;;
67274;SDS011;55463;52.324;5.122;2024-02-14T11:47:07;8.15;;;5.07;;
67274;SDS011;55463;52.324;5.122;2024-02-14T11:49:35;8.02;;;5.40;;
67274;SDS011;55463;52.324;5.122;2024-02-14T11:52:01;6.93;;;4.82;;
67274;SDS011;55463;52.324;5.122;2024-02-14T11:54:29;8.05;;;5.10;;
67274;SDS011;55463;52.324;5.122;2024-02-14T11:56:55;7.38;;;5.38;;
67274;SDS011;55463;52.324;5.122;2024-02-14T11:59:22;6.85;;;5.05;;
67274;SDS011;55463;52.324;5.122;2024-02-14T12:01:48;8.50;;;5.15;;
67274;SDS011;55463;52.324;5.122;2024-02-14T12:04:16;9.57;;;5.55;;
67274;SDS011;55463;52.324;5.122;2024-02-14T12:06:42;10.32;;;5.63;;
67274;SDS011;55463;52.324;5.122;2024-02-14T12:09:08;8.25;;;6.47;;
67274;SDS011;55463;52.324;5.122;2024-02-14T12:11:38;11.05;;;5.32;;
67274;SDS011;55463;52.324;5.122;2024-02-14T12:14:06;10.77;;;5.65;;
67274;SDS011;55463;52.324;5.122;2024-02-14T12:16:39;6.65;;;5.50;;
67274;SDS011;55463;52.324;5.122;2024-02-14T12:19:14;7.35;;;5.95;;
67274;SDS011;55463;52.324;5.122;2024-02-14T12:21:44;9.27;;;6.03;;
67274;SDS011;55463;52.324;5.122;2024-02-14T12:24:10;7.63;;;5.60;;
67274;SDS011;55463;52.324;5.122;2024-02-14T12:26:36;9.63;;;6.30;;
67274;SDS011;55463;52.324;5.122;2024-02-14T12:29:06;8.13;;;6.10;;
67274;SDS011;55463;52.324;5.122;2024-02-14T12:31:32;10.00;;;6.05;;
67274;SDS011;55463;52.324;5.122;2024-02-14T12:33:58;8.60;;;6.43;;
67274;SDS011;55463;52.324;5.122;2024-02-14T12:36:26;7.13;;;5.38;;
67274;SDS011;55463;52.324;5.122;2024-02-14T12:38:55;6.68;;;5.72;;
67274;SDS011;55463;52.324;5.122;2024-02-14T12:41:21;6.90;;;5.53;;
67274;SDS011;55463;52.324;5.122;2024-02-14T12:43:48;7.18;;;5.65;;
67274;SDS011;55463;52.324;5.122;2024-02-14T12:46:16;9.68;;;5.85;;
67274;SDS011;55463;52.324;5.122;2024-02-14T12:48:43;8.20;;;5.47;;
67274;SDS011;55463;52.324;5.122;2024-02-14T12:51:09;6.22;;;5.10;;
67274;SDS011;55463;52.324;5.122;2024-02-14T12:53:35;7.60;;;5.65;;
67274;SDS011;55463;52.324;5.122;2024-02-14T12:56:00;6.43;;;4.90;;
67274;SDS011;55463;52.324;5.122;2024-02-14T12:58:26;5.70;;;4.82;;
67274;SDS011;55463;52.324;5.122;2024-02-14T13:00:52;7.88;;;4.88;;
67274;SDS011;55463;52.324;5.122;2024-02-14T13:03:17;6.25;;;5.35;;
67274;SDS011;55463;52.324;5.122;2024-02-14T13:05:44;7.13;;;4.90;;
67274;SDS011;55463;52.324;5.122;2024-02-14T13:08:09;5.15;;;4.50;;
67274;SDS011;55463;52.324;5.122;2024-02-14T13:10:38;4.53;;;4.00;;
67274;SDS011;55463;52.324;5.122;2024-02-14T13:13:04;5.00;;;4.50;;
67274;SDS011;55463;52.324;5.122;2024-02-14T13:15:29;4.35;;;3.83;;
67274;SDS011;55463;52.324;5.122;2024-02-14T13:17:55;5.38;;;3.80;;
67274;SDS011;55463;52.324;5.122;2024-02-14T13:20:23;4.05;;;3.65;;
67274;SDS011;55463;52.324;5.122;2024-02-14T13:22:48;5.57;;;3.65;;
67274;SDS011;55463;52.324;5.122;2024-02-14T13:25:14;4.93;;;4.13;;
67274;SDS011;55463;52.324;5.122;2024-02-14T13:27:39;5.03;;;3.78;;
67274;SDS011;55463;52.324;5.122;2024-02-14T13:30:05;5.15;;;3.88;;
67274;SDS011;55463;52.324;5.122;2024-02-14T13:32:32;5.07;;;4.13;;
67274;SDS011;55463;52.324;5.122;2024-02-14T13:34:57;4.32;;;3.90;;
67274;SDS011;55463;52.324;5.122;2024-02-14T13:37:23;5.55;;;3.85;;
67274;SDS011;55463;52.324;5.122;2024-02-14T13:39:49;7.00;;;4.50;;
67274;SDS011;55463;52.324;5.122;2024-02-14T13:42:15;5.20;;;4.38;;
67274;SDS011;55463;52.324;5.122;2024-02-14T13:44:41;5.35;;;4.35;;
67274;SDS011;55463;52.324;5.122;2024-02-14T13:47:06;5.50;;;4.82;;
67274;SDS011;55463;52.324;5.122;2024-02-14T13:49:31;5.07;;;4.55;;
67274;SDS011;55463;52.324;5.122;2024-02-14T13:51:57;6.65;;;5.53;;
67274;SDS011;55463;52.324;5.122;2024-02-14T13:54:23;6.22;;;5.28;;
67274;SDS011;55463;52.324;5.122;2024-02-14T13:56:49;7.25;;;5.55;;
67274;SDS011;55463;52.324;5.122;2024-02-14T13:59:15;8.18;;;5.88;;
67274;SDS011;55463;52.324;5.122;2024-02-14T14:01:41;8.00;;;5.95;;
67274;SDS011;55463;52.324;5.122;2024-02-14T14:04:07;10.68;;;6.53;;
67274;SDS011;55463;52.324;5.122;2024-02-14T14:06:32;7.75;;;6.22;;
67274;SDS011;55463;52.324;5.122;2024-02-14T14:08:59;8.98;;;6.68;;
67274;SDS011;55463;52.324;5.122;2024-02-14T14:11:25;6.97;;;6.25;;
67274;SDS011;55463;52.324;5.122;2024-02-14T14:13:50;10.27;;;5.88;;
67274;SDS011;55463;52.324;5.122;2024-02-14T14:16:16;8.15;;;6.07;;
67274;SDS011;55463;52.324;5.122;2024-02-14T14:18:42;9.25;;;6.55;;
67274;SDS011;55463;52.324;5.122;2024-02-14T14:21:07;7.78;;;6.10;;
67274;SDS011;55463;52.324;5.122;2024-02-14T14:23:33;7.63;;;5.80;;
67274;SDS011;55463;52.324;5.122;2024-02-14T14:25:58;6.30;;;5.05;;
67274;SDS011;55463;52.324;5.122;2024-02-14T14:28:25;6.70;;;5.78;;
67274;SDS011;55463;52.324;5.122;2024-02-14T14:30:51;7.15;;;5.72;;